Time;durP1;ratioP1;P1;durP2;ratioP2;P2;SDS_P1;SDS_P2;PMS_P1;PMS_P2;Temp;Humidity;BMP_temperature;BMP_pressure;BME280_temperature;BME280_humidity;BME280_pressure;Samples;Min_cycle;Max_cycle;Signal;HPM_P1;HPM_P2
2021/08/09 00:01:39;;;;;;;5.82;2.30;;;;;;;15.44;100.00;100627.81;5094704;28;20078;-68
2021/08/09 00:04:23;;;;;;;2.97;2.40;;;;;;;15.34;100.00;100627.13;5094570;28;20077;-68
2021/08/09 00:07:08;;;;;;;9.38;3.05;;;;;;;15.26;100.00;100628.91;5093721;28;20054;-68
2021/08/09 00:09:53;;;;;;;6.18;2.38;;;;;;;15.23;100.00;100626.56;5094319;28;20062;-68
2021/08/09 00:12:37;;;;;;;6.43;2.38;;;;;;;15.25;100.00;100627.22;5094540;28;20097;-67
2021/08/09 00:15:22;;;;;;;4.47;2.55;;;;;;;15.22;100.00;100622.19;5094156;28;20043;-68
2021/08/09 00:18:05;;;;;;;7.80;2.55;;;;;;;15.15;100.00;100615.78;5093422;28;20054;-68
2021/08/09 00:20:52;;;;;;;5.55;2.65;;;;;;;15.11;100.00;100619.81;5094383;28;20051;-68
2021/08/09 00:23:36;;;;;;;5.07;2.33;;;;;;;15.06;100.00;100611.41;5094304;28;20100;-67
2021/08/09 00:26:22;;;;;;;5.00;2.28;;;;;;;14.95;100.00;100609.88;5093871;28;20561;-68
2021/08/09 00:29:06;;;;;;;4.03;2.33;;;;;;;14.88;100.00;100608.03;5094467;28;20054;-68
2021/08/09 00:31:50;;;;;;;6.07;2.47;;;;;;;14.80;100.00;100605.31;5094153;28;20051;-68
2021/08/09 00:34:34;;;;;;;5.35;2.30;;;;;;;14.71;100.00;100601.72;5092790;28;20046;-68
2021/08/09 00:37:18;;;;;;;8.45;2.53;;;;;;;14.63;100.00;100592.81;5094125;28;20439;-68
2021/08/09 00:40:04;;;;;;;4.45;2.35;;;;;;;14.54;100.00;100599.16;5094076;28;20059;-67
2021/08/09 00:42:47;;;;;;;5.60;2.67;;;;;;;14.47;100.00;100603.50;5093726;28;20096;-68
2021/08/09 00:45:31;;;;;;;7.15;2.53;;;;;;;14.41;100.00;100598.78;5093896;28;20511;-66
2021/08/09 00:48:15;;;;;;;5.90;2.40;;;;;;;14.34;100.00;100608.44;5093601;28;20047;-68
2021/08/09 00:50:59;;;;;;;4.82;2.60;;;;;;;14.30;100.00;100601.72;5093893;28;20092;-69
2021/08/09 00:53:43;;;;;;;5.13;2.60;;;;;;;14.25;100.00;100599.53;5092589;28;20051;-68
2021/08/09 00:56:27;;;;;;;5.57;2.75;;;;;;;14.20;100.00;100607.19;5092466;28;20151;-68
2021/08/09 00:59:10;;;;;;;5.07;2.42;;;;;;;14.16;100.00;100602.31;5093460;28;20051;-68
2021/08/09 01:01:55;;;;;;;5.30;2.70;;;;;;;14.08;100.00;100603.06;5092705;28;20055;-68
2021/08/09 01:04:39;;;;;;;6.00;2.78;;;;;;;14.01;100.00;100602.06;5093611;28;20495;-68
2021/08/09 01:07:25;;;;;;;3.13;2.58;;;;;;;13.98;100.00;100606.88;5093523;28;20051;-68
2021/08/09 01:10:30;;;;;;;5.18;2.72;;;;;;;13.92;100.00;100610.16;5092610;28;20550;-69
2021/08/09 01:13:20;;;;;;;6.88;2.35;;;;;;;13.84;100.00;100612.78;5092572;28;20412;-68
2021/08/09 01:16:08;;;;;;;4.57;2.78;;;;;;;13.75;100.00;100622.63;5092089;28;20519;-68
2021/08/09 01:18:58;;;;;;;6.78;2.67;;;;;;;13.71;100.00;100615.03;5092016;28;20512;-68
2021/08/09 01:21:43;;;;;;;3.63;2.60;;;;;;;13.66;100.00;100612.00;5092495;28;20527;-68
2021/08/09 01:24:38;;;;;;;4.55;2.47;;;;;;;13.62;100.00;100615.97;5092390;28;20093;-67
2021/08/09 01:27:30;;;;;;;3.13;2.45;;;;;;;13.55;100.00;100614.94;5092393;28;20078;-68
2021/08/09 01:30:14;;;;;;;5.93;2.60;;;;;;;13.51;100.00;100619.75;5078160;28;20078;-68
2021/08/09 01:32:58;;;;;;;6.30;2.63;;;;;;;13.49;100.00;100623.56;5092604;28;20050;-68
2021/08/09 01:35:44;;;;;;;6.07;3.00;;;;;;;13.44;100.00;100633.88;5077883;28;20066;-68
2021/08/09 01:38:28;;;;;;;11.15;3.05;;;;;;;13.51;100.00;100634.97;5092382;28;20461;-68
2021/08/09 01:41:13;;;;;;;4.63;2.67;;;;;;;13.50;100.00;100626.09;5092302;28;20127;-68
2021/08/09 01:43:57;;;;;;;5.90;2.50;;;;;;;13.49;100.00;100624.44;5093216;28;20510;-68
2021/08/09 01:46:42;;;;;;;6.95;3.00;;;;;;;13.48;100.00;100632.59;5092406;28;20462;-68
2021/08/09 01:49:26;;;;;;;3.85;2.72;;;;;;;13.45;100.00;100615.00;5092206;28;20137;-69
2021/08/09 01:52:10;;;;;;;7.13;2.30;;;;;;;13.43;100.00;100624.16;5091994;28;20051;-68
2021/08/09 01:54:54;;;;;;;3.70;2.50;;;;;;;13.42;100.00;100627.84;5092874;28;20071;-68
2021/08/09 01:57:38;;;;;;;4.38;2.70;;;;;;;13.38;100.00;100635.34;5093196;28;20055;-68
2021/08/09 02:00:22;;;;;;;3.33;2.40;;;;;;;13.32;100.00;100643.16;5092877;28;20090;-68
2021/08/09 02:03:06;;;;;;;4.40;2.60;;;;;;;13.29;100.00;100646.16;5091844;28;20101;-66
2021/08/09 02:05:50;;;;;;;3.55;2.70;;;;;;;13.25;100.00;100642.09;5092836;28;20047;-68
2021/08/09 02:08:34;;;;;;;4.63;2.58;;;;;;;13.23;100.00;100654.78;5092903;28;20540;-68
2021/08/09 02:11:46;;;;;;;5.03;2.70;;;;;;;13.18;100.00;100655.25;5092832;28;20561;-68
2021/08/09 02:14:32;;;;;;;3.53;2.88;;;;;;;13.11;100.00;100648.81;5093201;28;20042;-67
2021/08/09 02:17:18;;;;;;;4.40;2.85;;;;;;;13.10;100.00;100648.94;5092139;28;20440;-68
2021/08/09 02:20:11;;;;;;;4.63;2.50;;;;;;;13.09;100.00;100645.44;5092360;28;20051;-68
2021/08/09 02:22:58;;;;;;;3.28;2.42;;;;;;;13.06;100.00;100637.69;5092673;28;20101;-68
2021/08/09 02:25:46;;;;;;;3.60;2.60;;;;;;;13.05;100.00;100636.03;5091648;28;20169;-68
2021/08/09 02:28:30;;;;;;;4.80;2.95;;;;;;;13.04;100.00;100639.69;5091630;28;20516;-68
2021/08/09 02:31:15;;;;;;;7.72;3.13;;;;;;;13.00;100.00;100645.50;5094620;28;20392;-68
2021/08/09 02:34:00;;;;;;;5.40;2.90;;;;;;;12.96;100.00;100644.13;5096097;28;20113;-68
2021/08/09 02:36:44;;;;;;;4.13;3.13;;;;;;;12.95;100.00;100642.44;5096177;28;20058;-68
2021/08/09 02:39:30;;;;;;;4.78;3.28;;;;;;;12.96;100.00;100644.13;5096302;28;20054;-68
2021/08/09 02:42:14;;;;;;;3.75;2.70;;;;;;;12.94;100.00;100636.22;5094935;28;20508;-68
2021/08/09 02:44:59;;;;;;;4.60;3.25;;;;;;;12.94;100.00;100643.44;5095056;28;20051;-68
2021/08/09 02:47:43;;;;;;;2.90;2.55;;;;;;;12.93;100.00;100644.41;5095121;28;20128;-67
2021/08/09 02:50:27;;;;;;;3.55;2.58;;;;;;;12.93;100.00;100644.41;5096045;28;20139;-68
2021/08/09 02:53:16;;;;;;;2.92;2.55;;;;;;;12.90;100.00;100652.69;5096012;28;20043;-66
2021/08/09 02:56:01;;;;;;;4.63;2.33;;;;;;;12.88;100.00;100652.03;5094881;28;20177;-67
2021/08/09 02:58:45;;;;;;;4.80;3.05;;;;;;;12.84;100.00;100656.00;5094826;28;20046;-68
2021/08/09 03:01:32;;;;;;;3.65;2.92;;;;;;;12.81;100.00;100656.28;5095885;28;20043;-68
2021/08/09 03:04:18;;;;;;;3.03;2.58;;;;;;;12.79;100.00;100658.25;5094749;28;20105;-68
2021/08/09 03:07:07;;;;;;;4.60;2.78;;;;;;;12.81;100.00;100656.28;5094676;28;20047;-68
2021/08/09 03:09:51;;;;;;;6.50;3.22;;;;;;;12.87;100.00;100661.03;5094512;28;20050;-68
2021/08/09 03:12:35;;;;;;;3.70;2.75;;;;;;;12.89;100.00;100659.06;5094705;28;20051;-68
2021/08/09 03:15:19;;;;;;;4.18;2.72;;;;;;;12.93;100.00;100653.28;5094486;28;20051;-68
2021/08/09 03:18:03;;;;;;;7.03;2.67;;;;;;;12.96;100.00;100654.81;5094310;28;20046;-68
2021/08/09 03:20:47;;;;;;;4.25;3.15;;;;;;;12.99;100.00;100654.53;5095570;28;20054;-68
2021/08/09 03:23:31;;;;;;;4.93;3.22;;;;;;;13.09;100.00;100649.94;5095207;28;20420;-68
2021/08/09 03:26:15;;;;;;;6.10;2.75;;;;;;;13.10;100.00;100656.97;5095296;28;20563;-68
2021/08/09 03:28:58;;;;;;;5.28;2.88;;;;;;;13.12;100.00;100660.34;5095069;28;20047;-68
2021/08/09 03:31:43;;;;;;;4.47;2.60;;;;;;;13.12;100.00;100660.34;5094390;28;20047;-68
2021/08/09 03:34:27;;;;;;;4.00;3.00;;;;;;;13.11;100.00;100656.84;5094950;28;20086;-65
2021/08/09 03:37:11;;;;;;;4.43;2.65;;;;;;;13.11;100.00;100651.50;5094528;28;20130;-68
2021/08/09 03:39:55;;;;;;;3.15;2.70;;;;;;;13.12;100.00;100649.63;5095235;28;20113;-68
2021/08/09 03:42:47;;;;;;;7.20;3.28;;;;;;;13.13;100.00;100643.28;5094821;28;20063;-67
2021/08/09 03:45:32;;;;;;;3.60;2.63;;;;;;;13.15;100.00;100644.00;5094825;28;20085;-68
2021/08/09 03:48:16;;;;;;;5.68;2.90;;;;;;;13.18;100.00;100643.69;5094948;28;20101;-68
2021/08/09 03:51:00;;;;;;;5.53;2.83;;;;;;;13.21;100.00;100640.69;5094741;28;20078;-68
2021/08/09 03:53:44;;;;;;;5.65;2.47;;;;;;;13.24;100.00;100643.91;5094975;28;20113;-68
2021/08/09 03:56:27;;;;;;;3.97;2.60;;;;;;;13.28;100.00;100644.47;5094820;28;20401;-68
2021/08/09 03:59:11;;;;;;;4.18;2.63;;;;;;;13.31;100.00;100638.78;5095120;28;20176;-67
2021/08/09 04:01:55;;;;;;;3.35;2.60;;;;;;;13.35;100.00;100642.88;5093739;28;20082;-68
2021/08/09 04:04:42;;;;;;;3.97;2.58;;;;;;;13.37;100.00;100644.38;5094591;28;20093;-67
2021/08/09 04:07:27;;;;;;;4.32;2.47;;;;;;;13.40;100.00;100643.25;5094463;28;20051;-68
2021/08/09 04:10:11;;;;;;;6.47;2.60;;;;;;;13.41;100.00;100642.25;5093841;28;20401;-68
2021/08/09 04:12:56;;;;;;;3.58;2.63;;;;;;;13.42;100.00;100647.44;5094518;28;20104;-68
2021/08/09 04:15:39;;;;;;;6.22;2.80;;;;;;;13.42;100.00;100647.44;5094050;28;20515;-68
2021/08/09 04:18:26;;;;;;;3.80;2.67;;;;;;;13.41;100.00;100645.78;5094202;28;20523;-68
2021/08/09 04:21:10;;;;;;;3.00;2.67;;;;;;;13.41;100.00;100644.91;5094011;28;20401;-68
2021/08/09 04:23:54;;;;;;;7.60;3.00;;;;;;;13.37;100.00;100632.84;5094334;28;20404;-69
2021/08/09 04:26:38;;;;;;;4.55;2.78;;;;;;;13.35;100.00;100641.00;5094197;28;20047;-68
2021/08/09 04:29:22;;;;;;;5.38;2.88;;;;;;;13.39;100.00;100649.59;5093968;28;20055;-67
2021/08/09 04:32:16;;;;;;;5.40;3.10;;;;;;;13.52;100.00;100642.00;5094401;28;20416;-67
2021/08/09 04:35:00;;;;;;;3.33;2.53;;;;;;;13.48;100.00;100640.63;5092809;28;20511;-68
2021/08/09 04:37:44;;;;;;;3.35;2.70;;;;;;;13.48;100.00;100628.06;5093787;28;20109;-67
2021/08/09 04:40:30;;;;;;;6.43;3.22;;;;;;;13.49;100.00;100631.59;5094044;28;20139;-68
2021/08/09 04:43:20;;;;;;;7.10;2.97;;;;;;;13.49;100.00;100636.97;5093988;28;20050;-68
2021/08/09 04:46:05;;;;;;;5.78;2.60;;;;;;;13.49;100.00;100647.69;5093620;28;20050;-68
2021/08/09 04:48:49;;;;;;;9.85;2.85;;;;;;;13.47;100.00;100644.31;5093623;28;20038;-68
2021/08/09 04:51:33;;;;;;;3.65;2.40;;;;;;;13.48;100.00;100651.34;5093614;28;20127;-68
2021/08/09 04:54:17;;;;;;;4.03;2.50;;;;;;;13.51;100.00;100656.41;5094876;28;20109;-69
2021/08/09 04:57:02;;;;;;;3.80;2.95;;;;;;;13.55;100.00;100658.63;5093542;28;20467;-69
2021/08/09 04:59:46;;;;;;;3.83;2.47;;;;;;;13.59;100.00;100648.44;5092701;28;20105;-69
2021/08/09 05:02:30;;;;;;;7.47;3.38;;;;;;;13.67;100.00;100653.88;5093456;28;20078;-69
2021/08/09 05:05:14;;;;;;;4.88;2.63;;;;;;;13.75;100.00;100653.94;5092805;28;20047;-69
2021/08/09 05:07:58;;;;;;;4.50;2.85;;;;;;;13.84;100.00;100661.03;5093492;28;20130;-69
2021/08/09 05:10:42;;;;;;;6.55;3.20;;;;;;;13.92;100.00;100661.97;5093712;28;20066;-68
2021/08/09 05:13:26;;;;;;;4.22;2.85;;;;;;;14.02;100.00;100660.03;5093726;28;20101;-69
2021/08/09 05:16:10;;;;;;;6.00;3.03;;;;;;;14.10;100.00;100653.88;5093586;28;20051;-69
2021/08/09 05:19:01;;;;;;;4.28;2.83;;;;;;;14.18;100.00;100656.66;5093622;28;20070;-69
2021/08/09 05:21:45;;;;;;;7.00;2.90;;;;;;;14.26;100.00;100659.38;5093512;28;20587;-69
2021/08/09 05:24:30;;;;;;;4.03;2.60;;;;;;;14.37;100.00;100667.16;5093304;28;20466;-68
2021/08/09 05:27:14;;;;;;;4.68;2.78;;;;;;;14.46;100.00;100666.19;5093252;28;20157;-69
2021/08/09 05:29:58;;;;;;;4.63;2.40;;;;;;;14.54;100.00;100663.53;5093133;28;20194;-69
2021/08/09 05:32:42;;;;;;;3.13;2.60;;;;;;;14.69;100.00;100668.16;5093361;28;20088;-69
2021/08/09 05:35:25;;;;;;;5.40;2.75;;;;;;;14.75;100.00;100653.25;5092364;28;20298;-69
2021/08/09 05:38:12;;;;;;;5.35;2.75;;;;;;;14.86;100.00;100652.94;5092577;28;20051;-69
2021/08/09 05:40:56;;;;;;;3.80;2.47;;;;;;;14.90;100.00;100644.41;5093021;28;20050;-68
2021/08/09 05:43:40;;;;;;;5.47;3.10;;;;;;;14.94;100.00;100639.56;5092041;28;20051;-69
2021/08/09 05:46:24;;;;;;;6.55;2.78;;;;;;;15.06;100.00;100643.63;5092962;28;20043;-69
2021/08/09 05:49:08;;;;;;;5.18;2.30;;;;;;;14.98;100.00;100651.69;5092914;28;20046;-68
2021/08/09 05:51:52;;;;;;;4.25;2.45;;;;;;;14.93;100.00;100648.63;5092967;28;20050;-69
2021/08/09 05:54:36;;;;;;;5.25;2.70;;;;;;;14.91;100.00;100661.38;5092773;28;20097;-69
2021/08/09 05:57:20;;;;;;;2.72;2.50;;;;;;;14.87;100.00;100646.56;5092891;28;20098;-69
2021/08/09 06:00:05;;;;;;;5.50;2.83;;;;;;;14.84;100.00;100647.75;5092432;28;20515;-69
2021/08/09 06:02:49;;;;;;;7.15;3.03;;;;;;;14.86;100.00;100642.22;5091811;28;20569;-69
2021/08/09 06:05:33;;;;;;;6.65;3.15;;;;;;;14.84;100.00;100644.22;5093875;28;20060;-69
2021/08/09 06:08:17;;;;;;;6.35;2.88;;;;;;;14.85;100.00;100637.84;5095912;28;20090;-69
2021/08/09 06:11:01;;;;;;;4.00;2.78;;;;;;;14.94;100.00;100640.41;5096145;28;20050;-69
2021/08/09 06:13:45;;;;;;;4.50;2.75;;;;;;;14.99;100.00;100637.25;5096723;28;20124;-69
2021/08/09 06:16:29;;;;;;;4.05;2.80;;;;;;;15.07;100.00;100639.94;5096761;28;20051;-69
2021/08/09 06:19:12;;;;;;;6.43;3.25;;;;;;;15.18;100.00;100642.31;5096430;28;20097;-69
2021/08/09 06:21:57;;;;;;;5.22;2.60;;;;;;;15.31;100.00;100643.53;5095624;28;20051;-69
2021/08/09 06:24:41;;;;;;;4.50;2.72;;;;;;;15.37;100.00;100645.59;5095545;28;20074;-69
2021/08/09 06:27:25;;;;;;;7.78;3.03;;;;;;;15.54;100.00;100651.81;5081188;28;20077;-68
2021/08/09 06:30:09;;;;;;;5.75;3.13;;;;;;;15.67;100.00;100661.06;5096562;28;20550;-69
2021/08/09 06:32:53;;;;;;;5.93;2.90;;;;;;;15.72;100.00;100651.50;5096726;28;20511;-69
2021/08/09 06:35:37;;;;;;;5.30;3.10;;;;;;;15.82;100.00;100651.31;5096164;28;20055;-68
2021/08/09 06:38:21;;;;;;;6.38;3.47;;;;;;;15.93;100.00;100662.59;5096512;28;20178;-69
2021/08/09 06:41:05;;;;;;;5.55;2.85;;;;;;;16.04;100.00;100658.69;5096279;28;20051;-69
2021/08/09 06:43:49;;;;;;;;;;;;;;;16.16;100.00;100663.56;5096721;28;20050;-69
2021/08/09 06:46:33;;;;;;;4.28;2.80;;;;;;;16.25;100.00;100665.22;5095138;28;19982;-69
2021/08/09 06:49:17;;;;;;;4.45;2.70;;;;;;;16.29;100.00;100669.25;5096183;28;20063;-69
2021/08/09 06:52:01;;;;;;;4.20;2.50;;;;;;;16.42;100.00;100685.75;5095859;28;20503;-69
2021/08/09 06:54:46;;;;;;;6.53;2.88;;;;;;;16.56;100.00;100682.34;5095981;28;20120;-69
2021/08/09 06:57:29;;;;;;;3.53;2.55;;;;;;;16.70;100.00;100684.31;5095708;28;20531;-69
2021/08/09 07:00:14;;;;;;;3.08;2.58;;;;;;;16.82;100.00;100677.56;5095702;28;20047;-68
2021/08/09 07:03:04;;;;;;;3.20;2.22;;;;;;;16.95;100.00;100672.44;5095640;28;20077;-69
2021/08/09 07:05:48;;;;;;;2.90;2.13;;;;;;;17.08;100.00;100667.31;5095649;28;20042;-69
2021/08/09 07:08:32;;;;;;;4.13;2.38;;;;;;;17.23;100.00;100665.59;5094682;28;20047;-68
2021/08/09 07:11:17;;;;;;;5.40;2.60;;;;;;;17.37;98.98;100669.38;5095493;28;20104;-69
2021/08/09 07:14:01;;;;;;;6.50;2.25;;;;;;;17.47;95.45;100678.06;5080127;28;20082;-70
2021/08/09 07:16:46;;;;;;;4.80;2.20;;;;;;;17.50;95.80;100667.78;5094257;28;20105;-69
2021/08/09 07:19:31;;;;;;;5.10;2.40;;;;;;;17.69;97.58;100667.31;5095548;28;20054;-69
2021/08/09 07:22:15;;;;;;;4.95;2.15;;;;;;;17.83;93.50;100671.09;5094606;28;20047;-69
2021/08/09 07:24:59;;;;;;;4.05;2.10;;;;;;;17.92;91.18;100675.41;5095083;28;20554;-69
2021/08/09 07:27:43;;;;;;;6.43;2.22;;;;;;;17.90;90.52;100670.16;5095449;28;20089;-69
2021/08/09 07:30:27;;;;;;;4.70;2.25;;;;;;;18.02;89.78;100674.09;5094431;28;20462;-69
2021/08/09 07:33:11;;;;;;;4.60;2.20;;;;;;;18.13;90.45;100675.56;5094287;28;20400;-69
2021/08/09 07:35:55;;;;;;;4.47;2.22;;;;;;;18.21;88.23;100668.19;5093949;28;20050;-69
2021/08/09 07:38:39;;;;;;;4.75;2.15;;;;;;;18.37;88.49;100662.69;5095375;28;20430;-69
2021/08/09 07:41:23;;;;;;;4.07;2.08;;;;;;;18.46;85.38;100664.28;5094948;28;20120;-69
2021/08/09 07:44:07;;;;;;;3.40;2.13;;;;;;;18.53;84.62;100668.75;5095030;28;20055;-69
2021/08/09 07:46:51;;;;;;;2.65;1.70;;;;;;;18.60;84.44;100668.84;5094656;28;20172;-69
2021/08/09 07:49:35;;;;;;;3.60;2.10;;;;;;;18.75;86.00;100658.88;5093678;28;20113;-69
2021/08/09 07:52:19;;;;;;;;;;;;;;;18.89;84.67;100660.72;5095376;28;20141;-69
2021/08/09 07:55:03;;;;;;;2.90;1.97;;;;;;;19.02;81.05;100667.16;5094769;28;19957;-69
2021/08/09 07:57:47;;;;;;;5.10;2.00;;;;;;;19.05;77.01;100674.03;5094618;28;20082;-69
2021/08/09 08:00:31;;;;;;;2.13;1.75;;;;;;;19.26;80.16;100671.41;5094795;28;20047;-69
2021/08/09 08:03:15;;;;;;;2.90;2.03;;;;;;;19.43;80.17;100662.91;5094018;28;20078;-69
2021/08/09 08:05:59;;;;;;;2.50;1.63;;;;;;;19.59;74.54;100667.22;5094369;28;20052;-69
2021/08/09 08:08:43;;;;;;;2.58;1.60;;;;;;;19.58;73.80;100671.78;5094377;28;20067;-69
2021/08/09 08:11:28;;;;;;;3.08;1.88;;;;;;;19.59;74.89;100661.81;5094579;28;20085;-67
2021/08/09 08:14:13;;;;;;;3.80;2.08;;;;;;;19.58;73.68;100666.38;5093250;28;20046;-69
2021/08/09 08:16:56;;;;;;;4.22;2.40;;;;;;;19.60;73.33;100661.59;5093398;28;20105;-69
2021/08/09 08:19:40;;;;;;;4.18;2.03;;;;;;;19.69;74.60;100667.75;5094419;28;20161;-69
2021/08/09 08:22:24;;;;;;;4.55;2.22;;;;;;;19.68;72.19;100666.88;5094545;28;20058;-69
2021/08/09 08:25:09;;;;;;;3.28;1.80;;;;;;;19.78;73.35;100669.28;5093965;28;20051;-69
2021/08/09 08:27:52;;;;;;;5.45;1.95;;;;;;;19.80;73.28;100675.34;5093503;28;20101;-69
2021/08/09 08:30:36;;;;;;;4.05;2.08;;;;;;;19.84;73.87;100666.66;5094016;28;20536;-69
2021/08/09 08:33:20;;;;;;;4.25;2.00;;;;;;;20.04;74.21;100670.41;5093206;28;20560;-69
2021/08/09 08:36:04;;;;;;;3.67;1.65;;;;;;;20.08;73.02;100673.53;5092797;28;20093;-69
2021/08/09 08:38:48;;;;;;;4.00;1.77;;;;;;;20.32;72.33;100665.00;5094201;28;20124;-68
2021/08/09 08:41:32;;;;;;;;;;;;;;;20.45;69.69;100665.06;5094491;28;20047;-69
2021/08/09 08:44:18;;;;;;;4.22;1.85;;;;;;;20.36;70.53;100664.41;5093194;28;19923;-70
2021/08/09 08:47:02;;;;;;;10.10;2.05;;;;;;;20.48;70.42;100664.66;5092826;28;20512;-69
2021/08/09 08:49:46;;;;;;;4.13;1.90;;;;;;;20.45;70.49;100667.78;5092629;28;20054;-69
2021/08/09 08:52:30;;;;;;;2.55;1.88;;;;;;;20.52;69.47;100657.84;5093901;28;20102;-69
2021/08/09 08:55:15;;;;;;;2.58;1.80;;;;;;;20.61;66.62;100656.66;5093822;28;20050;-69
2021/08/09 08:57:59;;;;;;;3.42;1.80;;;;;;;20.82;68.73;100651.97;5092632;28;20473;-68
2021/08/09 09:00:47;;;;;;;2.53;1.77;;;;;;;20.93;67.16;100662.25;5093478;28;20051;-68
2021/08/09 09:03:37;;;;;;;5.38;2.00;;;;;;;21.14;67.72;100672.19;5092617;28;20067;-69
2021/08/09 09:06:21;;;;;;;2.42;1.83;;;;;;;21.26;67.05;100664.09;5093332;28;20043;-69
2021/08/09 09:09:05;;;;;;;3.47;1.75;;;;;;;21.46;66.26;100673.13;5093416;28;20051;-69
2021/08/09 09:11:49;;;;;;;;;;;;;;;21.60;65.04;100660.44;5093936;28;20047;-69
2021/08/09 09:14:33;;;;;;;5.03;1.77;;;;;;;21.60;64.77;100658.53;5093248;28;19919;-69
2021/08/09 09:17:34;;;;;;;3.17;1.92;;;;;;;21.69;63.02;100662.75;5093532;28;20554;-69
2021/08/09 09:20:24;;;;;;;2.83;1.50;;;;;;;21.52;61.93;100664.19;5093509;28;20123;-69
2021/08/09 09:23:20;;;;;;;6.05;1.90;;;;;;;21.77;63.00;100667.16;5093139;28;20067;-69
2021/08/09 09:26:22;;;;;;;4.78;1.77;;;;;;;21.74;62.57;100671.13;5093312;28;20404;-69
2021/08/09 09:29:12;;;;;;;3.50;1.80;;;;;;;22.05;62.36;100674.09;5092408;28;20043;-69
2021/08/09 09:31:55;;;;;;;3.97;1.80;;;;;;;22.41;60.91;100669.09;5093285;28;20086;-69
2021/08/09 09:34:49;;;;;;;3.33;1.77;;;;;;;22.82;59.93;100666.91;5093059;28;20427;-69
2021/08/09 09:37:37;;;;;;;4.47;2.13;;;;;;;23.14;58.78;100660.56;5093401;28;20518;-69
2021/08/09 09:40:21;;;;;;;5.38;1.83;;;;;;;23.36;56.17;100677.41;5096007;28;20408;-69
2021/08/09 09:43:19;;;;;;;3.58;1.70;;;;;;;23.87;55.75;100672.75;5097433;28;20595;-69
2021/08/09 09:46:03;;;;;;;5.35;1.70;;;;;;;23.49;54.05;100670.03;5097055;28;20050;-69
2021/08/09 09:48:47;;;;;;;;;;;;;;;23.81;54.25;100666.25;5097532;28;20457;-69
2021/08/09 09:51:41;;;;;;;3.25;1.55;;;;;;;24.20;53.13;100677.72;5096262;28;19918;-69
2021/08/09 09:54:27;;;;;;;2.95;1.65;;;;;;;24.23;51.70;100681.88;5081950;28;20097;-69
2021/08/09 09:57:10;;;;;;;2.13;1.35;;;;;;;23.93;52.56;100675.41;5096827;28;20047;-68
2021/08/09 09:59:55;;;;;;;;;;;;;;;23.57;53.50;100677.94;5097474;28;20416;-69
2021/08/09 10:02:40;;;;;;;6.22;1.80;;;;;;;24.02;53.67;100682.28;5097283;28;19919;-68
2021/08/09 10:05:24;;;;;;;3.72;1.27;;;;;;;23.78;52.93;100684.91;5095694;28;20047;-69
2021/08/09 10:08:18;;;;;;;2.63;1.60;;;;;;;23.67;52.87;100672.84;5096606;28;20051;-69
2021/08/09 10:11:03;;;;;;;;;;;;;;;23.62;52.23;100682.72;5096216;28;20043;-69
2021/08/09 10:13:47;;;;;;;2.33;1.40;;;;;;;23.79;53.41;100678.41;5097005;28;19965;-68
2021/08/09 10:16:34;;;;;;;4.18;1.40;;;;;;;24.46;50.97;100685.66;5095448;28;20055;-69
2021/08/09 10:19:20;;;;;;;1.65;1.30;;;;;;;24.90;50.76;100681.91;5081360;28;20051;-69
2021/08/09 10:22:04;;;;;;;4.47;1.70;;;;;;;25.29;49.10;100671.38;5095303;28;20105;-68
2021/08/09 10:24:51;;;;;;;2.85;1.17;;;;;;;25.07;48.48;100681.06;5096319;28;20051;-69
2021/08/09 10:27:51;;;;;;;2.17;1.52;;;;;;;24.72;49.24;100687.34;5095466;28;20105;-69
2021/08/09 10:30:36;;;;;;;5.40;1.98;;;;;;;24.98;49.46;100689.75;5095113;28;20415;-69
2021/08/09 10:33:46;;;;;;;4.38;1.70;;;;;;;25.19;48.83;100676.50;5095330;28;20413;-69
2021/08/09 10:37:08;;;;;;;3.58;1.73;;;;;;;25.83;46.70;100678.59;5095364;28;20401;-69
2021/08/09 10:40:17;;;;;;;2.35;1.38;;;;;;;27.04;44.13;100682.19;5096146;28;20046;-69
2021/08/09 10:43:03;;;;;;;3.30;1.70;;;;;;;27.87;41.99;100686.13;5096211;28;20561;-69
2021/08/09 10:45:48;;;;;;;5.20;1.70;;;;;;;28.00;40.97;100690.44;5095885;28;20558;-69
2021/08/09 10:48:41;;;;;;;2.67;1.40;;;;;;;29.08;39.37;100673.28;5095912;28;20114;-67
2021/08/09 10:51:51;;;;;;;4.75;1.65;;;;;;;29.64;37.44;100672.91;5095359;28;20067;-69
2021/08/09 10:54:36;;;;;;;2.17;1.67;;;;;;;29.79;36.56;100674.97;5096033;28;20123;-69
2021/08/09 10:57:42;;;;;;;4.53;1.58;;;;;;;29.62;38.52;100668.72;5094775;28;20093;-69
2021/08/09 11:00:38;;;;;;;5.50;1.88;;;;;;;29.92;38.02;100670.69;5095137;28;20050;-69
2021/08/09 11:03:22;;;;;;;4.05;1.42;;;;;;;31.34;33.94;100677.81;5095639;28;20125;-69
2021/08/09 11:06:45;;;;;;;2.33;1.25;;;;;;;31.60;33.17;100662.19;5095504;28;20120;-69
2021/08/09 11:09:35;;;;;;;2.20;1.50;;;;;;;31.03;33.37;100673.25;5095771;28;20078;-69
2021/08/09 11:12:26;;;;;;;3.72;1.45;;;;;;;29.24;35.93;100672.38;5095613;28;20128;-69
2021/08/09 11:15:12;;;;;;;4.22;1.65;;;;;;;29.09;37.87;100669.47;5095163;28;20081;-69
2021/08/09 11:17:57;;;;;;;4.03;1.35;;;;;;;28.65;38.02;100667.69;5094631;28;20042;-69
2021/08/09 11:20:41;;;;;;;2.50;1.30;;;;;;;27.83;40.05;100660.25;5094540;28;20062;-69
2021/08/09 11:23:25;;;;;;;;;;;;;;;27.17;42.02;100660.06;5095869;28;20416;-69
2021/08/09 11:26:19;;;;;;;2.13;1.58;;;;;;;26.15;44.39;100685.47;5095147;28;19919;-69
2021/08/09 11:29:04;;;;;;;;;;;;;;;24.92;46.74;100674.31;5095802;28;20063;-69
2021/08/09 11:31:50;;;;;;;2.78;1.52;;;;;;;24.64;48.64;100674.00;5094013;28;19919;-69
2021/08/09 11:34:34;;;;;;;1.80;1.30;;;;;;;24.37;48.52;100676.09;5095362;28;20083;-69
2021/08/09 11:37:18;;;;;;;;;;;;;;;24.03;50.37;100673.03;5094641;28;20046;-69
2021/08/09 11:40:02;;;;;;;1.83;1.35;;;;;;;23.90;50.26;100673.16;5079554;28;20002;-69
2021/08/09 11:42:49;;;;;;;;;;;;;;;23.62;51.64;100669.94;5095637;28;20062;-69
2021/08/09 11:45:33;;;;;;;2.35;1.75;;;;;;;23.48;52.36;100673.81;5093831;28;19918;-69
2021/08/09 11:48:30;;;;;;;7.47;1.83;;;;;;;23.33;51.97;100675.94;5094600;28;20047;-69
2021/08/09 11:51:20;;;;;;;2.95;1.55;;;;;;;23.38;53.86;100675.31;5093833;28;20043;-69
2021/08/09 11:54:04;;;;;;;2.72;1.48;;;;;;;23.15;53.53;100667.69;5094428;28;20046;-69
2021/08/09 11:56:54;;;;;;;5.25;1.63;;;;;;;23.18;53.33;100661.81;5094649;28;20046;-68
2021/08/09 11:59:40;;;;;;;2.45;1.23;;;;;;;23.38;52.96;100662.56;5093705;28;20174;-69
2021/08/09 12:02:24;;;;;;;3.53;1.75;;;;;;;23.54;53.10;100658.50;5093664;28;20043;-69
2021/08/09 12:05:09;;;;;;;;;;;;;;;23.80;52.32;100655.56;5094697;28;20097;-69
2021/08/09 12:08:03;;;;;;;5.38;1.50;;;;;;;24.14;49.99;100654.09;5094339;28;19922;-69
2021/08/09 12:10:47;;;;;;;3.63;1.60;;;;;;;24.79;49.78;100658.13;5094539;28;20042;-68
2021/08/09 12:13:32;;;;;;;;;;;;;;;26.32;45.35;100656.38;5093622;28;20100;-69
2021/08/09 12:16:16;;;;;;;2.85;1.40;;;;;;;28.64;39.38;100648.75;5093868;28;20395;-69
2021/08/09 12:19:00;;;;;;;;;;;;;;;28.69;37.85;100666.13;5094732;28;20078;-68
2021/08/09 12:21:44;;;;;;;4.45;1.65;;;;;;;28.10;40.10;100661.31;5093006;28;19918;-69
2021/08/09 12:24:28;;;;;;;3.47;1.80;;;;;;;28.61;37.99;100655.56;5094091;28;20411;-68
2021/08/09 12:27:16;;;;;;;;;;;;;;;29.66;36.66;100658.91;5093797;28;20511;-69
2021/08/09 12:30:17;;;;;;;2.75;1.55;;;;;;;30.30;34.78;100655.94;5093417;28;19918;-69
2021/08/09 12:33:04;;;;;;;2.80;1.40;;;;;;;31.24;33.05;100654.94;5093838;28;20093;-69
2021/08/09 12:35:48;;;;;;;2.10;1.40;;;;;;;30.79;33.82;100660.16;5092714;28;20104;-68
2021/08/09 12:38:38;;;;;;;3.30;1.40;;;;;;;31.71;32.41;100658.38;5093938;28;20043;-69
2021/08/09 12:41:29;;;;;;;2.35;1.20;;;;;;;31.36;31.01;100650.00;5094387;28;20458;-69
2021/08/09 12:44:13;;;;;;;3.88;1.83;;;;;;;31.08;32.26;100647.66;5093496;28;20409;-69
2021/08/09 12:46:57;;;;;;;1.90;1.50;;;;;;;30.49;31.86;100643.41;5093543;28;20173;-69
2021/08/09 12:49:41;;;;;;;1.75;1.13;;;;;;;30.77;32.35;100643.94;5093568;28;20047;-69
2021/08/09 12:52:25;;;;;;;4.70;1.63;;;;;;;32.22;30.53;100638.06;5093841;28;20043;-69